Alford, Indiana
Current Conditions -  °F | °C
As of 1:35 PM on Friday 24 Oct 2014 (Local Time) from KDCY Reporting Station
Clear Clear  
Wind Chill: 66°   Ceiling: Unl
Heat Index: 66°   Visibility: 10mi
Dew Point: 50°   Wind: 3mph
Humidity: 56%   Direction: 260°W
Pressure: 30.06"   Gusts: NA
Location:  38.4723°N, 87.3105°W
Report Text: KDCY 241835Z AUTO 26003KT 10SM CLR 19/10 A3006 RMK AO2 T01910100
Loading
Personal Weather Stations






























Interactive Weather Map New forecast layout! Learn more

10-Day Weather Forecast

Advertisements
Track Severe Weather on mobile